Time;durP1;ratioP1;P1;durP2;ratioP2;P2;SDS_P1;SDS_P2;PMS_P1;PMS_P2;Temp;Humidity;BMP_temperature;BMP_pressure;BME280_temperature;BME280_humidity;BME280_pressure;Samples;Min_cycle;Max_cycle;Signal;HPM_P1;HPM_P2
2023/09/27 00:00:15;;;;;;;3.13;2.60;;;;;;;13.30;97.69;101904.13;5093180;28;20377;-79
2023/09/27 00:02:42;;;;;;;2.67;2.37;;;;;;;13.28;97.53;101911.13;5093425;28;20058;-78
2023/09/27 00:05:10;;;;;;;2.90;2.60;;;;;;;13.22;97.75;101909.44;5092144;28;20076;-79
2023/09/27 00:07:37;;;;;;;2.95;2.50;;;;;;;13.25;97.95;101917.22;5092973;28;20384;-79
2023/09/27 00:10:09;;;;;;;2.70;2.40;;;;;;;13.23;98.05;101923.31;5092668;28;20024;-79
2023/09/27 00:12:34;;;;;;;3.00;2.22;;;;;;;13.20;98.08;101925.94;5092606;28;20020;-79
2023/09/27 00:15:02;;;;;;;2.50;2.30;;;;;;;13.12;98.43;101916.47;5093350;28;20028;-79
2023/09/27 00:17:28;;;;;;;2.67;2.10;;;;;;;13.15;98.43;101920.78;5093075;28;20035;-79
2023/09/27 00:19:54;;;;;;;2.33;2.13;;;;;;;13.12;98.52;101918.19;5092028;28;20028;-79
2023/09/27 00:22:19;;;;;;;1.83;1.73;;;;;;;13.10;99.41;101918.22;5092184;28;20127;-79
2023/09/27 00:24:45;;;;;;;1.90;1.80;;;;;;;13.04;98.80;101914.81;5092958;28;20154;-79
2023/09/27 00:27:11;;;;;;;2.07;1.97;;;;;;;13.07;99.09;101926.06;5091725;28;20065;-79
2023/09/27 00:29:36;;;;;;;2.00;1.90;;;;;;;13.03;98.96;101916.56;5092881;28;20507;-79
2023/09/27 00:32:02;;;;;;;2.60;2.20;;;;;;;13.07;100.00;101920.84;5093005;28;20024;-79
2023/09/27 00:34:27;;;;;;;2.27;2.07;;;;;;;13.06;99.78;101913.06;5092093;28;20039;-79
2023/09/27 00:36:52;;;;;;;2.10;2.00;;;;;;;13.06;99.36;101919.09;5092782;28;20055;-79
2023/09/27 00:39:17;;;;;;;2.30;2.10;;;;;;;13.06;99.13;101913.91;5092468;28;20028;-79
2023/09/27 00:41:43;;;;;;;2.10;1.90;;;;;;;13.10;99.34;101917.38;5096785;28;20035;-79
2023/09/27 00:44:08;;;;;;;2.00;1.80;;;;;;;13.10;99.31;101918.22;5098610;28;20460;-79
2023/09/27 00:46:34;;;;;;;2.20;2.00;;;;;;;13.12;99.30;101908.66;5097982;28;20035;-79
2023/09/27 00:48:59;;;;;;;2.70;2.20;;;;;;;13.12;100.00;101903.44;5099674;28;20031;-79
2023/09/27 00:51:29;;;;;;;2.30;2.10;;;;;;;13.12;100.00;101911.25;5099191;28;20024;-79
2023/09/27 00:53:55;;;;;;;2.40;2.20;;;;;;;13.16;100.00;101921.66;5098500;28;20028;-79
2023/09/27 00:56:21;;;;;;;2.67;2.42;;;;;;;13.14;100.00;101913.84;5098790;28;20435;-79
2023/09/27 00:58:47;;;;;;;2.50;2.30;;;;;;;13.13;100.00;101907.78;5099233;28;20024;-79
2023/09/27 01:01:13;;;;;;;2.20;2.00;;;;;;;13.09;100.00;101907.81;5097940;28;20028;-79
2023/09/27 01:03:39;;;;;;;2.30;2.10;;;;;;;13.08;100.00;101906.94;5099115;28;20392;-79
2023/09/27 01:06:04;;;;;;;2.30;2.00;;;;;;;13.07;100.00;101910.41;5099142;28;20028;-78
2023/09/27 01:08:30;;;;;;;2.83;1.90;;;;;;;13.02;100.00;101904.41;5098547;28;20059;-79
2023/09/27 01:10:55;;;;;;;2.13;1.93;;;;;;;13.07;100.00;101904.34;5098789;28;20373;-79
2023/09/27 01:13:21;;;;;;;2.10;2.00;;;;;;;13.03;100.00;101893.09;5081474;28;20107;-79
2023/09/27 01:15:47;;;;;;;2.17;2.00;;;;;;;13.02;100.00;101907.00;5077921;28;20025;-79
2023/09/27 01:18:12;;;;;;;2.43;2.20;;;;;;;13.00;100.00;101911.34;5078522;28;20039;-79
2023/09/27 01:20:37;;;;;;;2.13;1.93;;;;;;;13.01;99.92;101904.38;5078795;28;20029;-79
2023/09/27 01:23:05;;;;;;;2.20;2.00;;;;;;;12.96;100.00;101897.50;5077343;28;20025;-79
2023/09/27 01:25:35;;;;;;;2.00;1.90;;;;;;;12.98;100.00;101889.66;5078895;28;20052;-79
2023/09/27 01:28:09;;;;;;;2.50;2.15;;;;;;;12.91;99.99;101874.97;5079141;28;20021;-79
2023/09/27 01:30:36;;;;;;;2.00;1.90;;;;;;;12.87;100.00;101874.13;5077840;28;20032;-79
2023/09/27 01:33:09;;;;;;;1.92;1.80;;;;;;;12.87;100.00;101879.34;5078901;28;20081;-79
2023/09/27 01:35:39;;;;;;;2.08;1.88;;;;;;;12.80;100.00;101875.03;5078967;28;20032;-79
2023/09/27 01:38:09;;;;;;;2.33;2.13;;;;;;;12.81;100.00;101869.84;5078236;28;20055;-79
2023/09/27 01:40:41;;;;;;;2.20;2.00;;;;;;;12.79;100.00;101874.19;5078646;28;20020;-79
2023/09/27 01:43:07;;;;;;;1.85;1.75;;;;;;;12.77;100.00;101864.66;5077801;28;20496;-79
2023/09/27 01:45:33;;;;;;;2.03;1.90;;;;;;;12.73;100.00;101868.16;5078636;28;20028;-78
2023/09/27 01:48:00;;;;;;;2.40;2.20;;;;;;;12.74;100.00;101877.72;5078290;28;20036;-79
2023/09/27 01:50:25;;;;;;;;;;;;;;;12.74;100.00;101877.72;5077908;28;20113;-78
2023/09/27 01:52:52;;;;;;;2.57;2.37;;;;;;;12.72;99.88;101877.69;5075907;28;20694;-79
2023/09/27 01:55:18;;;;;;;2.80;2.40;;;;;;;12.74;100.00;101882.91;5075221;28;20381;-79
2023/09/27 01:57:46;;;;;;;4.77;2.70;;;;;;;12.73;99.80;101879.44;5074405;28;20112;-79
2023/09/27 02:00:14;;;;;;;2.83;2.40;;;;;;;12.71;99.89;101889.03;5082162;28;20112;-79
2023/09/27 02:02:44;;;;;;;2.42;2.22;;;;;;;12.66;99.95;101880.38;5067454;28;20031;-79
2023/09/27 02:05:10;;;;;;;2.42;2.22;;;;;;;12.65;99.77;101884.72;5074088;28;20052;-79
2023/09/27 02:07:39;;;;;;;2.53;2.30;;;;;;;12.62;99.77;101879.53;5075198;28;20017;-79
2023/09/27 02:10:09;;;;;;;2.35;2.10;;;;;;;12.56;100.00;101873.50;5074923;28;20028;-79
2023/09/27 02:12:36;;;;;;;2.40;2.20;;;;;;;12.54;99.96;101872.63;5074463;28;20075;-79
2023/09/27 02:15:02;;;;;;;2.83;2.40;;;;;;;12.54;100.00;101875.25;5075174;28;20074;-79
2023/09/27 02:17:27;;;;;;;2.40;2.20;;;;;;;12.50;100.00;101877.00;5074464;28;20025;-79
2023/09/27 02:19:52;;;;;;;2.87;2.50;;;;;;;12.46;99.82;101875.28;5074503;28;20029;-79
2023/09/27 02:22:18;;;;;;;2.50;2.30;;;;;;;12.45;100.00;101876.16;5074452;28;20027;-79
2023/09/27 02:24:44;;;;;;;3.07;2.30;;;;;;;12.43;99.95;101881.38;5074884;28;20430;-79
2023/09/27 02:27:10;;;;;;;3.20;2.40;;;;;;;12.39;99.84;101879.66;5073872;28;20059;-80
2023/09/27 02:29:37;;;;;;;3.03;2.35;;;;;;;12.38;100.00;101879.69;5094323;28;20055;-79
2023/09/27 02:32:02;;;;;;;2.55;2.30;;;;;;;12.35;100.00;101893.59;5093968;28;20024;-79
2023/09/27 02:34:28;;;;;;;2.90;2.60;;;;;;;12.28;99.96;101877.13;5094194;28;20051;-79
2023/09/27 02:36:53;;;;;;;3.07;2.40;;;;;;;12.26;100.00;101870.22;5094820;28;20036;-79
2023/09/27 02:39:18;;;;;;;2.50;2.30;;;;;;;12.30;100.00;101875.41;5093639;28;20031;-79
2023/09/27 02:41:44;;;;;;;2.50;2.30;;;;;;;12.30;100.00;101884.94;5095072;28;20099;-79
2023/09/27 02:44:09;;;;;;;2.57;2.37;;;;;;;12.30;100.00;101887.53;5094485;28;20480;-79
2023/09/27 02:46:37;;;;;;;2.90;2.40;;;;;;;12.31;100.00;101884.94;5093727;28;20027;-79
2023/09/27 02:49:04;;;;;;;2.88;2.20;;;;;;;12.28;100.00;101876.25;5094503;28;20020;-79
2023/09/27 02:51:31;;;;;;;2.78;2.40;;;;;;;12.30;100.00;101885.81;5094624;28;20040;-79
2023/09/27 02:53:57;;;;;;;3.35;2.42;;;;;;;12.29;100.00;101891.00;5094073;28;20024;-79
2023/09/27 02:56:22;;;;;;;3.67;2.70;;;;;;;12.21;99.96;101878.06;5092390;28;20097;-79
2023/09/27 02:58:47;;;;;;;2.70;2.47;;;;;;;12.26;100.00;101878.03;5094108;28;20035;-79
2023/09/27 03:01:13;;;;;;;3.07;2.70;;;;;;;12.26;100.00;101881.50;5092794;28;20032;-79
2023/09/27 03:03:38;;;;;;;4.43;2.73;;;;;;;12.23;100.00;101878.88;5094372;28;20357;-79
2023/09/27 03:06:05;;;;;;;4.13;2.63;;;;;;;12.19;100.00;101872.84;5094178;28;20111;-79
2023/09/27 03:08:30;;;;;;;;;;;;;;;12.20;100.00;101882.38;5093957;28;20081;-79
2023/09/27 03:10:56;;;;;;;4.23;2.90;;;;;;;12.16;100.00;101872.84;5094081;28;19920;-79
2023/09/27 03:13:21;;;;;;;2.88;2.50;;;;;;;12.18;100.00;101881.53;5094188;28;20032;-79
2023/09/27 03:16:05;;;;;;;3.23;2.53;;;;;;;12.15;100.00;101876.34;5093235;28;20461;-79
2023/09/27 03:18:31;;;;;;;3.17;2.70;;;;;;;12.15;100.00;101878.97;5094021;28;20434;-79
2023/09/27 03:20:57;;;;;;;3.67;2.80;;;;;;;12.10;100.00;101880.69;5093951;28;20459;-79
2023/09/27 03:23:22;;;;;;;3.60;2.63;;;;;;;12.13;100.00;101880.69;5093221;28;20031;-79
2023/09/27 03:25:49;;;;;;;4.00;2.90;;;;;;;12.12;100.00;101880.69;5094005;28;20408;-80
2023/09/27 03:28:14;;;;;;;2.90;2.70;;;;;;;12.08;100.00;101876.38;5090828;28;20032;-79
2023/09/27 03:30:40;;;;;;;3.63;2.70;;;;;;;12.08;100.00;101889.41;5093940;28;20078;-79
2023/09/27 03:33:06;;;;;;;3.60;2.87;;;;;;;12.11;100.00;101895.44;5093337;28;20099;-79
2023/09/27 03:35:31;;;;;;;3.00;2.60;;;;;;;12.11;100.00;101898.06;5093326;28;20023;-79
2023/09/27 03:37:59;;;;;;;3.00;2.50;;;;;;;12.12;100.00;101910.19;5093494;28;20028;-79
2023/09/27 03:40:24;;;;;;;3.00;2.70;;;;;;;12.11;100.00;101903.25;5093610;28;20020;-79
2023/09/27 03:42:50;;;;;;;3.53;2.70;;;;;;;12.00;100.00;101892.03;5092737;28;20039;-79
2023/09/27 03:45:16;;;;;;;3.47;2.70;;;;;;;11.99;100.00;101893.75;5093187;28;20664;-79
2023/09/27 03:47:44;;;;;;;3.38;2.88;;;;;;;11.99;100.00;101892.91;5093568;28;20488;-80
2023/09/27 03:50:10;;;;;;;4.15;2.80;;;;;;;12.06;100.00;101899.78;5092459;28;20475;-80
2023/09/27 03:52:36;;;;;;;2.78;2.45;;;;;;;11.97;100.00;101885.09;5093542;28;20030;-79
2023/09/27 03:55:01;;;;;;;2.43;2.20;;;;;;;11.94;100.00;101884.19;5092858;28;20012;-80
2023/09/27 03:57:26;;;;;;;3.03;2.50;;;;;;;11.83;100.00;101879.91;5092233;28;20024;-79
2023/09/27 03:59:55;;;;;;;2.70;2.50;;;;;;;11.84;100.00;101886.00;5093432;28;20032;-79
2023/09/27 04:02:20;;;;;;;3.08;2.78;;;;;;;11.84;100.00;101884.25;5092950;28;20020;-79
2023/09/27 04:04:45;;;;;;;3.40;2.77;;;;;;;11.85;100.00;101896.38;5092755;28;20024;-79
2023/09/27 04:07:11;;;;;;;2.80;2.47;;;;;;;11.82;100.00;101893.78;5092383;28;20028;-79
2023/09/27 04:09:37;;;;;;;3.13;2.80;;;;;;;11.79;100.00;101901.63;5092911;28;20024;-79
2023/09/27 04:12:02;;;;;;;3.83;2.80;;;;;;;11.87;100.00;101919.81;5092009;28;20077;-79
2023/09/27 04:14:28;;;;;;;3.90;3.00;;;;;;;11.84;100.00;101917.22;5093124;28;20468;-79
2023/09/27 04:16:59;;;;;;;4.33;2.93;;;;;;;11.86;100.00;101931.09;5092360;28;20028;-79
2023/09/27 04:19:27;;;;;;;3.50;2.80;;;;;;;11.81;100.00;101920.69;5091864;28;20024;-79
2023/09/27 04:21:53;;;;;;;2.88;2.58;;;;;;;11.73;100.00;101902.50;5092865;28;20525;-79
2023/09/27 04:24:18;;;;;;;3.20;2.70;;;;;;;11.72;100.00;101908.56;5092707;28;20024;-79
2023/09/27 04:26:44;;;;;;;3.10;2.80;;;;;;;11.71;100.00;101913.75;5092243;28;20020;-79
2023/09/27 04:29:10;;;;;;;3.70;2.60;;;;;;;11.74;100.00;101927.66;5092327;28;20020;-79
2023/09/27 04:31:35;;;;;;;3.30;2.70;;;;;;;11.75;100.00;101931.09;5091550;28;20030;-79
2023/09/27 04:34:01;;;;;;;3.50;2.80;;;;;;;11.76;100.00;101932.84;5093079;28;20024;-79
2023/09/27 04:36:26;;;;;;;3.83;2.90;;;;;;;11.73;100.00;101938.03;5092553;28;20103;-79
2023/09/27 04:38:52;;;;;;;3.47;2.70;;;;;;;11.72;100.00;101934.59;5092008;28;20036;-79
2023/09/27 04:41:17;;;;;;;3.93;2.73;;;;;;;11.70;100.00;101941.50;5092306;28;20027;-79
2023/09/27 04:43:44;;;;;;;3.70;2.90;;;;;;;11.67;100.00;101944.13;5093090;28;20024;-79
2023/09/27 04:46:13;;;;;;;3.58;2.90;;;;;;;11.66;100.00;101942.38;5079200;28;20020;-79
2023/09/27 04:48:39;;;;;;;4.10;2.80;;;;;;;11.66;100.00;101939.78;5072381;28;20524;-79
2023/09/27 04:51:04;;;;;;;2.97;2.50;;;;;;;11.56;100.00;101915.56;5072226;28;20025;-79
2023/09/27 04:53:37;;;;;;;2.27;2.07;;;;;;;11.47;100.00;101894.78;5071767;28;20423;-79
2023/09/27 04:56:07;;;;;;;3.88;2.63;;;;;;;11.46;100.00;101895.66;5072212;28;20049;-79
2023/09/27 04:58:32;;;;;;;2.60;2.40;;;;;;;11.47;100.00;101922.50;5072129;28;20032;-79
2023/09/27 05:00:58;;;;;;;2.63;2.43;;;;;;;11.48;100.00;101926.81;5071823;28;20406;-79
2023/09/27 05:03:23;;;;;;;2.57;2.37;;;;;;;11.49;100.00;101918.16;5072018;28;20017;-79
2023/09/27 05:05:48;;;;;;;3.43;2.60;;;;;;;11.50;100.00;101920.75;5072342;28;20081;-79
2023/09/27 05:08:14;;;;;;;2.73;2.50;;;;;;;11.49;100.00;101923.38;5071091;28;20047;-79
2023/09/27 05:10:39;;;;;;;3.17;2.80;;;;;;;11.48;100.00;101917.31;5072298;28;20042;-79
2023/09/27 05:13:07;;;;;;;4.13;2.80;;;;;;;11.48;100.00;101921.63;5071977;28;20035;-79
2023/09/27 05:15:33;;;;;;;3.78;2.80;;;;;;;11.47;100.00;101922.50;5071729;28;20070;-79
2023/09/27 05:17:58;;;;;;;3.13;2.60;;;;;;;11.48;100.00;101916.44;5071770;28;20103;-79
2023/09/27 05:20:24;;;;;;;3.13;2.40;;;;;;;11.46;100.00;101907.75;5072025;28;20023;-80
2023/09/27 05:22:51;;;;;;;2.93;2.50;;;;;;;11.46;100.00;101913.84;5071306;28;20482;-79
2023/09/27 05:25:16;;;;;;;2.97;2.50;;;;;;;11.48;100.00;101917.31;5071953;28;20028;-79
2023/09/27 05:27:42;;;;;;;2.40;2.20;;;;;;;11.46;100.00;101903.44;5079580;22;20097;-79
2023/09/27 05:30:11;;;;;;;2.93;2.40;;;;;;;11.43;100.00;101903.44;5074508;28;20032;-79
2023/09/27 05:32:42;;;;;;;3.50;2.70;;;;;;;11.45;100.00;101901.72;5075950;28;20396;-80
2023/09/27 05:35:07;;;;;;;2.80;2.50;;;;;;;11.44;100.00;101906.03;5074475;28;20125;-80
2023/09/27 05:37:33;;;;;;;2.90;2.60;;;;;;;11.44;100.00;101900.81;5075291;28;20543;-80
2023/09/27 05:39:58;;;;;;;3.67;3.00;;;;;;;11.50;100.00;101906.91;5075722;28;20052;-80
2023/09/27 05:42:27;;;;;;;3.77;2.90;;;;;;;11.52;100.00;101912.97;5074229;28;20082;-80
2023/09/27 05:44:57;;;;;;;4.38;2.70;;;;;;;11.51;100.00;101906.03;5075794;28;20028;-79
2023/09/27 05:47:24;;;;;;;3.08;2.70;;;;;;;11.48;100.00;101901.72;5075375;28;20029;-79
2023/09/27 05:49:49;;;;;;;;;;;;;;;11.51;100.00;101906.88;5082148;28;20389;-78
2023/09/27 05:52:16;;;;;;;3.03;2.67;;;;;;;11.46;100.00;101893.06;5094499;28;19916;-79
2023/09/27 05:54:42;;;;;;;2.92;2.60;;;;;;;11.48;100.00;101891.31;5096023;28;20036;-79
2023/09/27 05:57:08;;;;;;;3.37;2.60;;;;;;;11.46;100.00;101890.44;5094604;28;20047;-80
2023/09/27 05:59:33;;;;;;;3.80;2.70;;;;;;;11.50;100.00;101896.50;5095295;28;20024;-77
2023/09/27 06:01:59;;;;;;;4.63;2.90;;;;;;;11.49;100.00;101887.81;5074814;28;20082;-81
2023/09/27 06:04:27;;;;;;;3.53;2.60;;;;;;;11.51;100.00;101887.84;5074141;28;20032;-80
2023/09/27 06:06:52;;;;;;;3.67;2.50;;;;;;;11.51;100.00;101888.69;5075172;28;20412;-80
2023/09/27 06:09:18;;;;;;;4.17;2.90;;;;;;;11.51;100.00;101896.47;5074745;28;20040;-80
2023/09/27 06:11:45;;;;;;;3.47;2.73;;;;;;;11.53;100.00;101897.34;5094457;28;20032;-80
2023/09/27 06:14:10;;;;;;;3.33;2.78;;;;;;;11.54;100.00;101890.44;5095292;28;20081;-80
2023/09/27 06:16:39;;;;;;;3.40;2.70;;;;;;;11.54;100.00;101886.09;5094901;28;20024;-80
2023/09/27 06:19:05;;;;;;;3.13;2.60;;;;;;;11.52;100.00;101887.81;5074452;28;20025;-80
2023/09/27 06:21:31;;;;;;;2.60;2.40;;;;;;;11.59;100.00;101897.34;5075216;28;20071;-80
2023/09/27 06:23:56;;;;;;;2.50;2.30;;;;;;;11.64;100.00;101891.25;5074932;28;20020;-80
2023/09/27 06:26:21;;;;;;;2.43;2.10;;;;;;;11.66;100.00;101879.13;5074121;28;20035;-80
2023/09/27 06:28:47;;;;;;;3.40;2.50;;;;;;;11.71;100.00;101878.25;5074616;28;20163;-80
2023/09/27 06:31:13;;;;;;;2.50;2.30;;;;;;;11.78;100.00;101868.69;5073803;28;20021;-80
2023/09/27 06:33:39;;;;;;;3.20;2.38;;;;;;;11.97;100.00;101877.28;5074665;28;20127;-81
2023/09/27 06:36:08;;;;;;;2.30;2.10;;;;;;;12.12;100.00;101854.66;5074473;28;20035;-80
2023/09/27 06:38:33;;;;;;;2.20;2.00;;;;;;;12.45;100.00;101863.13;5073577;28;20032;-80
2023/09/27 06:40:59;;;;;;;2.40;2.20;;;;;;;12.57;100.00;101867.41;5074335;28;20362;-80
2023/09/27 06:43:34;;;;;;;2.37;2.17;;;;;;;12.73;100.00;101866.41;5073830;28;20020;-80
2023/09/27 06:46:07;;;;;;;2.72;2.45;;;;;;;12.86;100.00;101866.31;5073496;28;20062;-80
2023/09/27 06:48:32;;;;;;;2.60;2.30;;;;;;;13.06;100.00;101880.03;5074689;28;20019;-80
2023/09/27 06:50:58;;;;;;;3.17;2.43;;;;;;;13.49;100.00;101881.38;5074744;28;20020;-81
2023/09/27 06:53:31;;;;;;;2.87;2.20;;;;;;;14.40;100.00;101883.72;5068879;28;20028;-79
2023/09/27 06:55:56;;;;;;;3.90;2.50;;;;;;;14.83;100.00;101894.38;5080730;22;20056;-80
2023/09/27 06:58:23;;;;;;;2.40;2.20;;;;;;;14.75;100.00;101896.28;5073817;28;20748;-79
2023/09/27 07:00:49;;;;;;;;;;;;;;;14.62;99.63;101900.81;5073812;28;20081;-76
2023/09/27 07:03:15;;;;;;;2.88;2.58;;;;;;;14.44;99.31;101901.06;5074039;28;19908;-76
2023/09/27 07:05:41;;;;;;;2.50;2.27;;;;;;;14.36;99.95;101891.59;5073976;28;20361;-78
2023/09/27 07:08:06;;;;;;;2.50;2.30;;;;;;;14.23;100.00;101874.38;5060957;28;20055;-78
2023/09/27 07:10:32;;;;;;;2.30;2.10;;;;;;;14.18;100.00;101886.66;5072928;28;20502;-78
2023/09/27 07:13:04;;;;;;;3.30;2.50;;;;;;;14.02;99.98;101876.41;5072499;28;20028;-78
2023/09/27 07:15:45;;;;;;;3.88;2.92;;;;;;;14.00;99.79;101891.22;5077489;28;20464;-79
2023/09/27 07:18:11;;;;;;;4.00;2.90;;;;;;;13.87;100.00;101895.72;5093262;28;20491;-78
2023/09/27 07:20:36;;;;;;;3.67;2.93;;;;;;;13.71;100.00;101886.34;5093484;28;20027;-78
2023/09/27 07:23:06;;;;;;;2.60;2.40;;;;;;;13.77;100.00;101906.28;5093675;28;20029;-78
2023/09/27 07:25:37;;;;;;;4.00;3.03;;;;;;;13.59;100.00;101884.75;5093929;28;20031;-78
2023/09/27 07:28:19;;;;;;;5.00;3.10;;;;;;;13.68;100.00;101909.88;5093335;28;20024;-78
2023/09/27 07:30:45;;;;;;;3.38;2.80;;;;;;;13.54;100.00;101886.53;5093650;28;20024;-79
2023/09/27 07:33:11;;;;;;;3.77;2.77;;;;;;;13.63;100.00;101891.66;5093541;28;20119;-79
2023/09/27 07:35:41;;;;;;;3.70;2.97;;;;;;;13.64;100.00;101896.00;5093169;28;20285;-77
2023/09/27 07:38:08;;;;;;;3.97;2.88;;;;;;;13.65;100.00;101904.69;5093414;28;20286;-78
2023/09/27 07:40:33;;;;;;;3.95;2.80;;;;;;;13.61;100.00;101903.00;5090895;28;20058;-79
2023/09/27 07:42:59;;;;;;;3.90;2.80;;;;;;;13.68;100.00;101910.72;5072451;28;20116;-79
2023/09/27 07:45:30;;;;;;;3.73;3.00;;;;;;;13.70;100.00;101898.53;5072703;28;20074;-79
2023/09/27 07:47:55;;;;;;;3.58;2.80;;;;;;;13.74;100.00;101891.53;5086885;28;20475;-80
2023/09/27 07:50:23;;;;;;;2.70;2.50;;;;;;;13.81;100.00;101895.78;5078799;28;20108;-79
2023/09/27 07:52:48;;;;;;;3.25;2.80;;;;;;;13.86;100.00;101901.84;5072747;28;20073;-80
2023/09/27 07:55:21;;;;;;;3.23;2.90;;;;;;;13.90;100.00;101900.03;5072600;28;20120;-79
2023/09/27 07:57:47;;;;;;;2.88;2.60;;;;;;;13.97;100.00;101903.44;5072260;28;20067;-79
2023/09/27 08:00:15;;;;;;;3.27;2.57;;;;;;;14.02;100.00;101909.44;5072676;28;20016;-79
2023/09/27 08:02:42;;;;;;;2.58;2.30;;;;;;;14.11;100.00;101901.53;5072290;28;20281;-79
2023/09/27 08:05:11;;;;;;;3.33;2.40;;;;;;;14.18;100.00;101897.94;5072866;28;20048;-76
2023/09/27 08:07:37;;;;;;;3.75;2.83;;;;;;;14.25;100.00;101903.94;5072697;28;20435;-75
2023/09/27 08:10:03;;;;;;;;;;;;;;;14.36;100.00;101909.00;5072263;28;20500;-75
2023/09/27 08:12:31;;;;;;;3.15;2.47;;;;;;;14.46;100.00;101913.25;5073201;28;19963;-75
2023/09/27 08:15:01;;;;;;;2.35;2.13;;;;;;;14.58;100.00;101913.94;5071741;28;20032;-79
2023/09/27 08:17:26;;;;;;;1.90;1.80;;;;;;;14.66;100.00;101902.47;5073109;28;20557;-78
2023/09/27 08:19:52;;;;;;;2.20;1.87;;;;;;;14.79;100.00;101911.03;5072661;28;20108;-78
2023/09/27 08:22:18;;;;;;;2.40;2.20;;;;;;;14.89;100.00;101919.56;5072637;28;20027;-78
2023/09/27 08:24:43;;;;;;;3.07;2.30;;;;;;;14.93;100.00;101921.25;5071944;28;20465;-78
2023/09/27 08:27:08;;;;;;;2.60;2.17;;;;;;;15.04;100.00;101930.66;5072435;28;20046;-78
2023/09/27 08:29:35;;;;;;;1.80;1.70;;;;;;;15.13;100.00;101936.63;5072792;28;20477;-78
2023/09/27 08:32:00;;;;;;;2.58;1.60;;;;;;;15.25;100.00;101934.69;5072006;28;20046;-81
2023/09/27 08:34:26;;;;;;;1.37;1.37;;;;;;;15.29;100.00;101915.41;5072111;28;20116;-81
2023/09/27 08:36:52;;;;;;;1.50;1.40;;;;;;;15.48;100.00;101928.19;5072684;28;20063;-81
2023/09/27 08:39:18;;;;;;;2.30;2.10;;;;;;;15.59;100.00;101924.44;5071579;28;20029;-81
2023/09/27 08:41:43;;;;;;;1.70;1.60;;;;;;;15.79;100.00;101940.66;5072821;28;20027;-81
2023/09/27 08:44:11;;;;;;;2.07;1.87;;;;;;;15.87;100.00;101937.03;5073246;28;20020;-81
2023/09/27 08:46:50;;;;;;;1.55;1.45;;;;;;;16.08;100.00;101944.47;5071753;28;20423;-81
2023/09/27 08:49:28;;;;;;;2.05;1.95;;;;;;;16.15;100.00;101917.28;5072036;28;20016;-82
2023/09/27 08:51:54;;;;;;;2.33;2.13;;;;;;;16.35;100.00;101925.56;5071802;28;20020;-82
2023/09/27 08:54:21;;;;;;;3.87;2.80;;;;;;;16.43;100.00;101914.03;5072394;28;20100;-83
2023/09/27 08:56:49;;;;;;;4.45;3.10;;;;;;;16.50;100.00;101910.34;5072436;28;20060;-82
2023/09/27 08:59:15;;;;;;;5.93;4.20;;;;;;;16.62;100.00;101922.34;5071488;28;20033;-82
2023/09/27 09:01:43;;;;;;;9.05;4.93;;;;;;;16.78;100.00;101913.19;5073129;28;20047;-76
2023/09/27 09:04:24;;;;;;;6.63;4.53;;;;;;;17.02;100.00;101912.66;5082501;28;20059;-81
2023/09/27 09:07:02;;;;;;;16.63;9.17;;;;;;;17.20;97.35;101921.84;5095600;28;20411;-81
2023/09/27 09:09:30;;;;;;;10.10;6.47;;;;;;;17.40;99.04;101914.28;5096491;28;20032;-81
2023/09/27 09:11:58;;;;;;;15.18;8.93;;;;;;;17.57;95.37;101923.44;5096465;28;20107;-80
2023/09/27 09:14:54;;;;;;;17.85;11.15;;;;;;;17.54;95.40;101908.66;5093702;28;20028;-80
2023/09/27 09:17:24;;;;;;;13.57;8.25;;;;;;;17.60;97.07;101903.25;5096070;28;20020;-81
2023/09/27 09:20:15;;;;;;;10.23;6.28;;;;;;;17.72;97.27;101907.28;5096381;28;20036;-81
2023/09/27 09:22:42;;;;;;;14.50;9.07;;;;;;;17.77;93.08;101908.94;5096361;28;20372;-81
2023/09/27 09:25:08;;;;;;;15.25;9.10;;;;;;;17.75;94.42;101908.94;5096278;28;20032;-82
2023/09/27 09:27:33;;;;;;;12.57;6.93;;;;;;;17.74;95.35;101897.59;5095166;28;20035;-82
2023/09/27 09:30:00;;;;;;;9.33;5.43;;;;;;;17.81;96.21;101898.28;5096303;28;20490;-82
2023/09/27 09:32:27;;;;;;;6.80;4.50;;;;;;;17.87;96.15;101895.47;5095939;28;20016;-82
2023/09/27 09:34:53;;;;;;;5.28;3.67;;;;;;;17.96;96.50;101896.13;5095239;28;20486;-80
2023/09/27 09:37:24;;;;;;;5.60;4.00;;;;;;;18.05;95.62;101894.09;5095752;28;20354;-82
2023/09/27 09:39:51;;;;;;;4.57;3.60;;;;;;;18.13;96.21;101887.75;5095700;28;20084;-81
2023/09/27 09:42:33;;;;;;;4.55;3.40;;;;;;;18.17;96.66;101887.63;5094894;28;20047;-85
2023/09/27 09:45:11;;;;;;;6.50;3.80;;;;;;;18.23;96.65;101878.69;5095936;28;20048;-83
2023/09/27 09:47:39;;;;;;;5.03;3.65;;;;;;;18.33;96.04;101880.13;5095995;28;20031;-83
2023/09/27 09:50:06;;;;;;;4.43;3.20;;;;;;;18.51;97.26;101872.56;5086932;28;20021;-86
2023/09/27 09:52:35;;;;;;;6.78;4.45;;;;;;;18.67;94.85;101860.63;5075722;28;20039;-79
2023/09/27 09:55:03;;;;;;;5.93;3.92;;;;;;;18.85;95.99;101862.69;5075153;28;20067;-80
2023/09/27 09:57:35;;;;;;;8.90;5.88;;;;;;;18.99;94.39;101863.09;5075218;28;20064;-83
2023/09/27 10:00:13;;;;;;;9.95;5.95;;;;;;;19.14;92.93;101849.41;5075289;28;20430;-81
2023/09/27 10:02:55;;;;;;;9.88;5.90;;;;;;;19.33;91.79;101856.66;5074766;28;20092;-83
2023/09/27 10:05:21;;;;;;;11.25;6.45;;;;;;;19.45;90.35;101858.84;5074714;28;20017;-79
2023/09/27 10:07:54;;;;;;;10.35;6.25;;;;;;;19.60;87.58;101854.78;5086902;28;20020;-83
2023/09/27 10:10:22;;;;;;;8.27;5.60;;;;;;;19.75;85.36;101847.22;5093620;28;20024;-81
2023/09/27 10:12:52;;;;;;;12.20;6.80;;;;;;;19.88;86.83;101848.50;5094805;28;20017;-80
2023/09/27 10:15:20;;;;;;;11.10;6.38;;;;;;;19.97;88.50;101846.44;5095022;28;20031;-80
2023/09/27 10:17:46;;;;;;;7.88;5.07;;;;;;;20.04;88.98;101856.66;5094293;28;20189;-80
2023/09/27 10:20:14;;;;;;;7.82;4.85;;;;;;;20.14;88.94;101857.19;5094889;28;20482;-80
2023/09/27 10:22:43;;;;;;;7.13;4.60;;;;;;;20.25;87.47;101864.63;5094871;28;20044;-80
2023/09/27 10:25:25;;;;;;;6.53;4.25;;;;;;;20.39;87.99;101863.22;5093990;28;20051;-80
2023/09/27 10:28:04;;;;;;;5.88;4.20;;;;;;;20.52;86.80;101860.03;5095027;28;20039;-80
2023/09/27 10:30:41;;;;;;;5.20;3.78;;;;;;;20.68;86.73;101848.84;5094226;28;20032;-80
2023/09/27 10:33:16;;;;;;;8.57;5.40;;;;;;;20.78;83.58;101844.94;5094541;28;20032;-80
2023/09/27 10:35:46;;;;;;;8.70;5.50;;;;;;;20.78;84.89;101844.94;5094858;28;20354;-80
2023/09/27 10:38:13;;;;;;;9.90;5.28;;;;;;;20.71;81.92;101832.03;5093977;28;20032;-80
2023/09/27 10:40:46;;;;;;;10.30;6.13;;;;;;;20.62;83.74;101813.03;5094720;28;20032;-80
2023/09/27 10:43:38;;;;;;;10.05;5.95;;;;;;;20.66;81.53;101835.72;5094630;28;20074;-80
2023/09/27 10:46:04;;;;;;;7.85;4.90;;;;;;;20.66;83.66;101826.94;5053593;28;20063;-80
2023/09/27 10:48:30;;;;;;;6.15;4.05;;;;;;;20.71;80.73;101825.00;5074155;28;20087;-80
2023/09/27 10:50:56;;;;;;;;;;;;;;;20.76;81.17;101820.38;5055092;28;20036;-80
2023/09/27 10:53:22;;;;;;;;;;;;;;;20.82;81.83;101808.72;5068533;28;20325;-81
2023/09/27 10:55:47;;;;;;;7.43;4.03;;;;;;;20.91;82.20;101802.19;5055211;28;20286;-80
2023/09/27 10:58:15;;;;;;;7.50;3.87;;;;;;;21.01;82.80;101800.84;5053078;28;20025;-80
2023/09/27 11:00:56;;;;;;;6.97;4.15;;;;;;;21.08;81.53;101793.53;5056980;28;20109;-81
2023/09/27 11:03:25;;;;;;;5.35;3.50;;;;;;;21.11;82.34;101788.97;5073709;28;20020;-80
2023/09/27 11:05:51;;;;;;;5.57;3.70;;;;;;;21.15;80.17;101789.69;5073024;28;20036;-80
2023/09/27 11:08:21;;;;;;;3.60;3.07;;;;;;;21.16;81.62;101794.03;5073572;28;20024;-80
2023/09/27 11:10:47;;;;;;;5.40;3.70;;;;;;;21.17;81.38;101787.00;5074157;28;20100;-80
2023/09/27 11:13:21;;;;;;;9.88;5.57;;;;;;;21.07;78.66;101771.53;5072716;28;20103;-81
2023/09/27 11:16:09;;;;;;;7.40;4.57;;;;;;;21.17;76.94;101779.06;5073055;28;20025;-81
2023/09/27 11:18:36;;;;;;;6.05;3.58;;;;;;;21.14;80.49;101778.28;5072742;28;20385;-81
2023/09/27 11:21:08;;;;;;;4.30;2.95;;;;;;;21.12;80.89;101774.84;5069399;28;20365;-81
2023/09/27 11:23:53;;;;;;;4.72;2.70;;;;;;;21.13;81.30;101776.56;5068929;28;20025;-81